createdAt,value
2022-11-20T00:00:13.727Z,44.33
2022-11-20T00:01:46.569Z,46.72
2022-11-20T00:03:18.381Z,41.45
2022-11-20T00:04:51.092Z,46.13
2022-11-20T00:06:24.766Z,46.78
2022-11-20T00:07:57.475Z,47.60
2022-11-20T00:09:30.192Z,46.40
2022-11-20T00:11:10.310Z,44.03
2022-11-20T00:12:45.577Z,45.92
2022-11-20T00:14:18.436Z,43.95
2022-11-20T00:15:58.378Z,46.10
2022-11-20T00:17:31.155Z,44.92
2022-11-20T00:19:03.979Z,43.95
2022-11-20T00:20:35.733Z,46.60
2022-11-20T00:22:08.451Z,48.80
2022-11-20T00:23:41.427Z,45.92
2022-11-20T00:25:14.183Z,45.45
2022-11-20T00:26:48.231Z,46.58
2022-11-20T00:28:20.953Z,43.65
2022-11-20T00:29:53.665Z,45.63
2022-11-20T00:31:27.120Z,46.05
2022-11-20T00:32:59.864Z,47.88
2022-11-20T00:34:32.614Z,46.05
2022-11-20T00:36:07.431Z,46.13
2022-11-20T00:37:40.145Z,47.15
2022-11-20T00:39:12.890Z,45.13
2022-11-20T00:40:45.606Z,45.72
2022-11-20T00:42:19.875Z,43.08
2022-11-20T00:43:54.308Z,42.28
2022-11-20T00:45:26.074Z,46.47
2022-11-20T00:46:58.799Z,42.70
2022-11-20T00:48:31.911Z,46.03
2022-11-20T00:50:05.219Z,45.55
2022-11-20T00:51:37.947Z,47.78
2022-11-20T00:53:09.728Z,48.45
2022-11-20T00:54:42.457Z,43.97
2022-11-20T00:56:17.328Z,42.58
2022-11-20T00:57:51.377Z,45.00
2022-11-20T00:59:24.302Z,48.65
2022-11-20T01:01:01.062Z,45.42
2022-11-20T01:02:33.810Z,46.63
2022-11-20T01:04:07.011Z,47.55
2022-11-20T01:05:38.797Z,46.95
2022-11-20T01:07:11.607Z,47.00
2022-11-20T01:08:44.411Z,46.33
2022-11-20T01:10:17.255Z,49.72
2022-11-20T01:11:50.235Z,48.08
2022-11-20T01:13:38.253Z,50.67
2022-11-20T01:15:11.489Z,49.03
2022-11-20T01:16:46.864Z,50.45
2022-11-20T01:18:18.635Z,48.72
2022-11-20T01:19:51.727Z,50.25
2022-11-20T01:21:25.737Z,52.22
2022-11-20T01:22:57.519Z,50.00
2022-11-20T01:24:30.230Z,49.75
2022-11-20T01:26:03.501Z,52.15
2022-11-20T01:27:36.236Z,47.67
2022-11-20T01:29:15.017Z,50.80
2022-11-20T01:30:46.776Z,53.58
2022-11-20T01:32:19.502Z,52.28
2022-11-20T01:33:53.807Z,53.58
2022-11-20T01:35:25.577Z,54.58
2022-11-20T01:36:58.344Z,54.35
2022-11-20T01:38:31.056Z,54.50
2022-11-20T01:40:04.368Z,52.58
2022-11-20T01:41:54.835Z,52.92
2022-11-20T01:43:29.342Z,56.65
2022-11-20T01:45:03.779Z,53.92
2022-11-20T01:46:39.271Z,57.90
2022-11-20T01:48:12.001Z,58.28
2022-11-20T01:49:50.301Z,54.97
2022-11-20T01:51:31.420Z,57.72
2022-11-20T01:53:08.632Z,54.63
2022-11-20T01:54:46.001Z,52.95
2022-11-20T01:56:19.478Z,58.00
2022-11-20T01:57:52.720Z,56.30
2022-11-20T01:59:27.889Z,54.58
2022-11-20T02:01:02.546Z,58.75
2022-11-20T02:02:35.964Z,52.17
2022-11-20T02:04:10.371Z,53.47
2022-11-20T02:05:47.409Z,61.15
2022-11-20T02:07:21.128Z,54.28
2022-11-20T02:08:54.521Z,51.13
2022-11-20T02:10:29.022Z,51.80
2022-11-20T02:12:02.346Z,48.72
2022-11-20T02:13:44.223Z,50.75
2022-11-20T02:15:16.078Z,51.85
2022-11-20T02:16:51.436Z,52.40
2022-11-20T02:18:24.751Z,47.25
2022-11-20T02:19:57.539Z,49.60
2022-11-20T02:21:37.411Z,49.00
2022-11-20T02:23:16.107Z,46.50
2022-11-20T02:24:51.847Z,51.17
2022-11-20T02:26:25.896Z,51.17
2022-11-20T02:27:58.682Z,50.95
2022-11-20T02:29:38.327Z,52.42
2022-11-20T02:31:11.077Z,51.75
2022-11-20T02:32:44.078Z,51.17
2022-11-20T02:34:16.823Z,48.70
2022-11-20T02:35:48.608Z,51.72
2022-11-20T02:37:21.990Z,58.80
2022-11-20T02:38:54.157Z,55.15
2022-11-20T02:40:28.234Z,63.15
2022-11-20T02:42:03.987Z,56.45
2022-11-20T02:43:36.108Z,60.08
2022-11-20T02:45:09.957Z,56.35
2022-11-20T02:46:42.686Z,59.33
2022-11-20T02:48:15.452Z,59.45
2022-11-20T02:49:48.176Z,59.17
2022-11-20T02:51:20.956Z,58.90
2022-11-20T02:52:52.900Z,58.47
2022-11-20T02:54:25.834Z,59.08
2022-11-20T02:55:59.936Z,58.80
2022-11-20T02:57:32.683Z,66.40
2022-11-20T02:59:05.471Z,59.47
2022-11-20T03:00:38.212Z,62.28
2022-11-20T03:02:11.349Z,59.95
2022-11-20T03:03:44.091Z,58.33
2022-11-20T03:05:15.925Z,64.88
2022-11-20T03:06:48.664Z,60.15
2022-11-20T03:08:20.460Z,60.97
2022-11-20T03:09:53.355Z,58.78
2022-11-20T03:11:27.422Z,61.97
2022-11-20T03:13:00.193Z,54.53
2022-11-20T03:14:32.931Z,58.78
2022-11-20T03:16:13.600Z,53.60
2022-11-20T03:17:45.387Z,55.83
2022-11-20T03:19:18.277Z,54.90
2022-11-20T03:20:50.187Z,53.20
2022-11-20T03:22:22.896Z,55.47
2022-11-20T03:23:55.686Z,53.97
2022-11-20T03:25:27.624Z,54.58
2022-11-20T03:27:01.695Z,56.55
2022-11-20T03:28:33.451Z,54.63
2022-11-20T03:30:07.391Z,54.05
2022-11-20T03:31:41.537Z,55.78
2022-11-20T03:33:14.266Z,57.42
2022-11-20T03:34:46.051Z,54.88
2022-11-20T03:36:20.391Z,54.17
2022-11-20T03:37:53.145Z,55.55
2022-11-20T03:39:25.848Z,62.45
2022-11-20T03:41:01.359Z,56.15
2022-11-20T03:42:47.280Z,59.85
2022-11-20T03:44:23.549Z,55.17
2022-11-20T03:45:56.286Z,57.00
2022-11-20T03:47:29.473Z,54.40
2022-11-20T03:49:02.437Z,53.55
2022-11-20T03:50:34.586Z,47.97
2022-11-20T03:52:07.298Z,59.15
2022-11-20T03:53:40.355Z,54.33
2022-11-20T03:55:13.203Z,50.72
2022-11-20T03:56:46.878Z,56.15
2022-11-20T03:58:20.019Z,53.13
2022-11-20T03:59:52.771Z,53.90
2022-11-20T04:01:27.374Z,50.60
2022-11-20T04:03:00.594Z,54.13
2022-11-20T04:04:33.370Z,54.22
2022-11-20T04:06:07.923Z,54.92
2022-11-20T04:07:40.719Z,50.58
2022-11-20T04:09:13.568Z,55.25
2022-11-20T04:10:46.298Z,53.80
2022-11-20T04:12:19.031Z,50.17
2022-11-20T04:13:55.279Z,52.67
2022-11-20T04:15:28.021Z,53.65
2022-11-20T04:16:59.766Z,52.63
2022-11-20T04:18:32.461Z,47.58
2022-11-20T04:20:06.194Z,49.88
2022-11-20T04:21:39.031Z,50.97
2022-11-20T04:23:11.770Z,48.65
2022-11-20T04:24:43.567Z,50.63
2022-11-20T04:26:16.280Z,46.88
2022-11-20T04:27:48.045Z,52.50
2022-11-20T04:29:22.264Z,49.15
2022-11-20T04:30:55.140Z,53.78
2022-11-20T04:32:27.904Z,54.85
2022-11-20T04:34:02.251Z,53.67
2022-11-20T04:35:36.009Z,53.65
2022-11-20T04:37:08.732Z,53.58
2022-11-20T04:38:41.019Z,53.35
2022-11-20T04:40:14.385Z,57.55
2022-11-20T04:41:47.082Z,51.65
2022-11-20T04:43:18.888Z,52.95
2022-11-20T04:44:52.962Z,53.45
2022-11-20T04:46:25.670Z,54.85
2022-11-20T04:47:58.384Z,49.17
2022-11-20T04:49:30.246Z,51.80
2022-11-20T04:51:04.927Z,53.92
2022-11-20T04:52:37.850Z,53.92
2022-11-20T04:54:11.289Z,53.63
2022-11-20T04:55:44.023Z,49.92
2022-11-20T04:57:16.311Z,56.85
2022-11-20T04:58:49.067Z,48.60
2022-11-20T05:00:23.215Z,49.65
2022-11-20T05:01:55.389Z,53.67
2022-11-20T05:03:28.170Z,53.95
2022-11-20T05:05:00.868Z,50.65
2022-11-20T05:06:33.973Z,50.13
2022-11-20T05:08:06.722Z,50.72
2022-11-20T05:09:39.494Z,52.83
2022-11-20T05:11:13.537Z,52.75
2022-11-20T05:12:46.238Z,52.53
2022-11-20T05:14:18.987Z,50.88
2022-11-20T05:15:53.058Z,54.65
2022-11-20T05:17:25.777Z,51.30
2022-11-20T05:18:58.640Z,52.88
2022-11-20T05:20:31.367Z,53.22
2022-11-20T05:22:04.108Z,56.72
2022-11-20T05:23:37.531Z,53.83
2022-11-20T05:25:09.624Z,54.95
2022-11-20T05:26:42.354Z,57.38
2022-11-20T05:28:14.111Z,64.22
2022-11-20T05:29:46.863Z,60.42
2022-11-20T05:31:27.285Z,60.78
2022-11-20T05:33:00.989Z,56.13
2022-11-20T05:34:33.821Z,56.97
2022-11-20T05:36:07.194Z,60.15
2022-11-20T05:37:39.921Z,58.00
2022-11-20T05:39:12.671Z,53.97
2022-11-20T05:40:44.503Z,54.83
2022-11-20T05:42:32.492Z,55.22
2022-11-20T05:44:05.508Z,54.03
2022-11-20T05:45:39.056Z,50.55
2022-11-20T05:47:13.122Z,55.28
2022-11-20T05:48:47.171Z,51.72
2022-11-20T05:50:19.904Z,51.55
2022-11-20T05:51:52.626Z,58.33
2022-11-20T05:53:27.645Z,57.42
2022-11-20T05:55:00.576Z,53.35
2022-11-20T05:56:33.514Z,56.40
2022-11-20T05:58:06.220Z,56.65
2022-11-20T05:59:39.313Z,55.08
2022-11-20T06:01:14.924Z,60.65
2022-11-20T06:02:49.024Z,55.38
2022-11-20T06:04:21.787Z,57.20
2022-11-20T06:05:54.519Z,54.15
2022-11-20T06:07:27.357Z,52.70
2022-11-20T06:09:00.285Z,55.60
2022-11-20T06:10:32.041Z,59.03
2022-11-20T06:12:05.185Z,63.90
2022-11-20T06:13:42.058Z,58.38
2022-11-20T06:15:15.438Z,61.50
2022-11-20T06:16:48.191Z,55.95
2022-11-20T06:18:22.331Z,53.40
2022-11-20T06:19:55.035Z,56.50
2022-11-20T06:21:27.876Z,54.97
2022-11-20T06:23:00.575Z,46.78
2022-11-20T06:24:33.300Z,49.85
2022-11-20T06:26:08.042Z,52.03
2022-11-20T06:27:40.776Z,54.08
2022-11-20T06:29:13.712Z,54.17
2022-11-20T06:30:47.747Z,60.67
2022-11-20T06:32:20.484Z,48.58
2022-11-20T06:33:54.799Z,55.47
2022-11-20T06:35:27.534Z,54.05
2022-11-20T06:37:00.268Z,55.20
2022-11-20T06:38:33.041Z,54.10
2022-11-20T06:40:07.102Z,57.30
2022-11-20T06:41:39.839Z,52.55
2022-11-20T06:43:12.635Z,57.25
2022-11-20T06:44:45.706Z,56.72
2022-11-20T06:46:19.844Z,52.53
2022-11-20T06:47:52.578Z,53.38
2022-11-20T06:49:27.366Z,56.45
2022-11-20T06:51:00.628Z,56.22
2022-11-20T06:52:33.418Z,53.60
2022-11-20T06:54:06.542Z,51.00
2022-11-20T06:55:43.511Z,55.53
2022-11-20T06:57:16.275Z,56.42
2022-11-20T06:58:48.988Z,55.50
2022-11-20T07:00:21.880Z,55.38
2022-11-20T07:01:54.610Z,56.92
2022-11-20T07:03:26.388Z,55.42
2022-11-20T07:05:00.509Z,59.47
2022-11-20T07:06:33.285Z,50.90
2022-11-20T07:08:06.856Z,56.28
2022-11-20T07:09:39.591Z,54.33
2022-11-20T07:11:14.534Z,52.90
2022-11-20T07:12:51.761Z,52.92
2022-11-20T07:14:24.497Z,51.33
2022-11-20T07:15:56.308Z,56.72
2022-11-20T07:17:29.070Z,52.83
2022-11-20T07:19:01.875Z,52.67
2022-11-20T07:20:35.911Z,50.63
2022-11-20T07:22:08.627Z,48.38
2022-11-20T07:23:41.351Z,50.75
2022-11-20T07:25:14.087Z,49.92
2022-11-20T07:26:48.819Z,54.42
2022-11-20T07:28:21.522Z,55.53
2022-11-20T07:29:54.224Z,59.90
2022-11-20T07:31:26.936Z,48.95
2022-11-20T07:32:59.698Z,58.33
2022-11-20T07:34:32.426Z,56.38
2022-11-20T07:36:07.239Z,58.83
2022-11-20T07:37:39.959Z,58.25
2022-11-20T07:39:12.676Z,56.38
2022-11-20T07:40:45.439Z,53.20
2022-11-20T07:42:18.169Z,55.88
2022-11-20T07:43:50.889Z,48.38
2022-11-20T07:45:25.630Z,58.13
2022-11-20T07:46:58.364Z,67.75
2022-11-20T07:48:31.069Z,78.70
2022-11-20T07:50:03.808Z,118.25
2022-11-20T07:51:37.905Z,58.95
2022-11-20T07:53:10.632Z,55.92
2022-11-20T07:54:43.342Z,52.13
2022-11-20T07:56:16.026Z,50.95
2022-11-20T07:57:55.765Z,60.40
2022-11-20T07:59:28.492Z,59.67
2022-11-20T08:01:05.241Z,60.50
2022-11-20T08:02:40.090Z,51.42
2022-11-20T08:04:13.273Z,51.10
2022-11-20T08:05:46.004Z,51.63
2022-11-20T08:07:20.217Z,50.55
2022-11-20T08:08:53.373Z,56.05
2022-11-20T08:10:26.262Z,47.58
2022-11-20T08:12:16.598Z,50.45
2022-11-20T08:14:07.091Z,47.35
2022-11-20T08:15:41.452Z,47.85
2022-11-20T08:17:14.222Z,44.72
2022-11-20T08:18:46.919Z,45.05
2022-11-20T08:20:19.675Z,49.78
2022-11-20T08:21:52.520Z,45.05
2022-11-20T08:23:26.608Z,50.60
2022-11-20T08:24:59.319Z,47.45
2022-11-20T08:26:32.046Z,47.63
2022-11-20T08:28:18.342Z,40.88
2022-11-20T08:29:53.316Z,44.08
2022-11-20T08:31:27.358Z,44.63
2022-11-20T08:33:03.446Z,44.58
2022-11-20T08:34:36.131Z,42.92
2022-11-20T08:36:09.368Z,40.72
2022-11-20T08:37:42.845Z,42.40
2022-11-20T08:39:16.975Z,47.30
2022-11-20T08:41:03.616Z,41.50
2022-11-20T08:42:36.344Z,41.85
2022-11-20T08:44:10.066Z,43.80
2022-11-20T08:45:42.787Z,41.70
2022-11-20T08:47:15.505Z,40.22
2022-11-20T08:48:47.280Z,41.25
2022-11-20T08:50:20.416Z,39.53
2022-11-20T08:51:56.006Z,37.85
2022-11-20T08:53:27.910Z,41.45
2022-11-20T08:55:01.980Z,44.40
2022-11-20T08:56:35.061Z,37.17
2022-11-20T08:58:07.999Z,40.95
2022-11-20T09:01:33.429Z,40.85
2022-11-20T09:03:06.155Z,38.05
2022-11-20T09:04:38.880Z,41.38
2022-11-20T09:06:11.586Z,41.65
2022-11-20T09:07:44.375Z,40.45
2022-11-20T09:09:17.116Z,41.13
2022-11-20T09:10:55.111Z,38.38
2022-11-20T09:12:27.844Z,41.47
2022-11-20T09:14:00.977Z,35.75
2022-11-20T09:15:34.685Z,35.25
2022-11-20T09:17:08.482Z,37.38
2022-11-20T09:18:41.289Z,36.63
2022-11-20T09:20:17.106Z,34.38
2022-11-20T09:21:49.810Z,38.30
2022-11-20T09:23:22.540Z,39.58
2022-11-20T09:24:55.267Z,35.03
2022-11-20T09:26:29.316Z,39.75
2022-11-20T09:28:01.140Z,37.15
2022-11-20T09:29:33.946Z,36.58
2022-11-20T09:31:07.719Z,38.30
2022-11-20T09:32:41.210Z,36.22
2022-11-20T09:34:13.927Z,36.03
2022-11-20T09:35:46.697Z,34.72
2022-11-20T09:37:19.392Z,35.47
2022-11-20T09:38:52.108Z,38.28
2022-11-20T09:40:27.785Z,54.35
2022-11-20T09:42:26.660Z,65.18
2022-11-20T09:44:09.318Z,48.00
2022-11-20T09:46:06.784Z,39.70
2022-11-20T09:47:55.607Z,39.58
2022-11-20T09:49:43.059Z,51.25
2022-11-20T09:51:25.539Z,37.00
2022-11-20T09:53:18.350Z,34.03
2022-11-20T09:54:51.941Z,34.30
2022-11-20T09:56:25.433Z,37.15
2022-11-20T09:58:01.451Z,34.50
2022-11-20T09:59:38.446Z,33.72
2022-11-20T10:01:15.033Z,82.82
2022-11-20T10:02:52.443Z,92.93
2022-11-20T10:04:26.110Z,51.80
2022-11-20T10:06:02.419Z,50.65
2022-11-20T10:07:41.253Z,91.70
2022-11-20T10:09:24.762Z,87.40
2022-11-20T10:11:06.444Z,46.33
2022-11-20T10:12:57.145Z,50.92
2022-11-20T10:14:39.623Z,55.75
2022-11-20T10:16:26.103Z,48.72
2022-11-20T10:18:20.611Z,43.70
2022-11-20T10:20:04.829Z,41.75
2022-11-20T10:21:46.352Z,35.25
2022-11-20T10:23:46.843Z,41.63
2022-11-20T10:25:22.232Z,35.03
2022-11-20T10:27:05.389Z,32.88
2022-11-20T10:28:57.398Z,31.90
2022-11-20T10:30:37.372Z,32.60
2022-11-20T10:32:16.348Z,29.60
2022-11-20T10:34:11.020Z,32.67
2022-11-20T10:35:46.942Z,29.05
2022-11-20T10:37:23.180Z,29.73
2022-11-20T10:39:00.559Z,28.52
2022-11-20T10:40:39.783Z,29.65
2022-11-20T10:42:16.659Z,28.17
2022-11-20T10:43:53.640Z,33.60
2022-11-20T10:45:47.372Z,29.77
2022-11-20T10:47:21.948Z,32.92
2022-11-20T10:48:54.694Z,32.20
2022-11-20T10:50:28.162Z,28.02
2022-11-20T10:52:10.914Z,29.00
2022-11-20T10:53:53.075Z,27.92
2022-11-20T10:55:34.828Z,29.67
2022-11-20T10:57:14.168Z,29.23
2022-11-20T10:58:56.365Z,29.00
2022-11-20T11:00:29.217Z,30.20
2022-11-20T11:02:03.633Z,29.02
2022-11-20T11:03:36.430Z,33.28
2022-11-20T11:05:33.175Z,29.73
2022-11-20T11:07:12.823Z,29.85
2022-11-20T11:08:46.889Z,30.40
2022-11-20T11:10:23.152Z,29.73
2022-11-20T11:11:55.884Z,30.83
2022-11-20T11:13:30.321Z,30.63
2022-11-20T11:15:03.040Z,29.63
2022-11-20T11:16:36.630Z,30.20
2022-11-20T11:18:12.951Z,29.00
2022-11-20T11:19:44.694Z,29.00
2022-11-20T11:21:24.813Z,30.10
2022-11-20T11:22:59.558Z,30.45
2022-11-20T11:24:42.118Z,28.13
2022-11-20T11:26:22.406Z,28.45
2022-11-20T11:27:57.158Z,30.50
2022-11-20T11:29:31.588Z,31.80
2022-11-20T11:31:04.335Z,30.85
2022-11-20T11:32:36.204Z,30.65
2022-11-20T11:34:14.619Z,29.90
2022-11-20T11:35:51.415Z,30.10
2022-11-20T11:37:24.555Z,26.40
2022-11-20T11:38:57.378Z,31.48
2022-11-20T11:40:33.153Z,26.35
2022-11-20T11:42:06.088Z,24.25
2022-11-20T11:43:57.103Z,26.63
2022-11-20T11:45:30.383Z,27.45
2022-11-20T11:47:04.364Z,27.90
2022-11-20T11:48:37.111Z,25.48
2022-11-20T11:50:20.488Z,32.58
2022-11-20T11:52:07.018Z,36.20
2022-11-20T11:53:43.343Z,91.35
2022-11-20T11:55:22.667Z,130.18
2022-11-20T11:56:55.815Z,88.18
2022-11-20T11:58:43.677Z,90.70
2022-11-20T12:00:18.554Z,69.10
2022-11-20T12:01:55.476Z,78.07
2022-11-20T12:03:35.239Z,57.70
2022-11-20T12:05:19.498Z,33.50
2022-11-20T12:06:59.700Z,28.90
2022-11-20T12:08:39.048Z,28.10
2022-11-20T12:10:19.943Z,29.55
2022-11-20T12:12:00.964Z,29.10
2022-11-20T12:13:44.611Z,30.02
2022-11-20T12:15:27.530Z,26.00
2022-11-20T12:17:00.256Z,27.80
2022-11-20T12:18:33.271Z,34.38
2022-11-20T12:20:13.926Z,28.38
2022-11-20T12:22:01.968Z,27.95
2022-11-20T12:23:46.024Z,27.52
2022-11-20T12:25:23.309Z,33.25
2022-11-20T12:27:07.401Z,28.60
2022-11-20T12:28:53.043Z,29.40
2022-11-20T12:30:26.256Z,49.20
2022-11-20T12:32:21.029Z,39.40
2022-11-20T12:34:15.598Z,29.65
2022-11-20T12:36:08.024Z,40.58
2022-11-20T12:37:54.237Z,27.40
2022-11-20T12:39:35.918Z,40.28
2022-11-20T12:41:40.612Z,37.45
2022-11-20T12:43:39.302Z,36.45
2022-11-20T12:45:36.742Z,27.77
2022-11-20T12:47:19.010Z,24.95
2022-11-20T12:49:13.750Z,27.20
2022-11-20T12:51:14.141Z,29.08
2022-11-20T12:52:51.619Z,29.98
2022-11-20T12:54:35.961Z,27.08
2022-11-20T12:56:21.495Z,27.80
2022-11-20T12:57:58.945Z,25.83
2022-11-20T12:59:49.341Z,25.48
2022-11-20T13:01:41.802Z,30.05
2022-11-20T13:03:36.381Z,24.35
2022-11-20T13:05:20.677Z,23.50
2022-11-20T13:06:53.642Z,26.73
2022-11-20T13:08:30.183Z,34.47
2022-11-20T13:10:03.306Z,37.33
2022-11-20T13:11:45.563Z,32.03
2022-11-20T13:13:25.402Z,31.70
2022-11-20T13:15:07.036Z,30.48
2022-11-20T13:16:46.897Z,31.50
2022-11-20T13:18:20.463Z,33.13
2022-11-20T13:19:55.987Z,30.25
2022-11-20T13:21:38.832Z,33.17
2022-11-20T13:23:11.655Z,31.80
2022-11-20T13:24:53.217Z,35.25
2022-11-20T13:26:26.723Z,32.83
2022-11-20T13:28:01.495Z,35.42
2022-11-20T13:29:35.349Z,38.33
2022-11-20T13:31:26.383Z,33.08
2022-11-20T13:33:05.801Z,32.72
2022-11-20T13:34:38.530Z,33.58
2022-11-20T13:36:25.532Z,30.98
2022-11-20T13:38:07.807Z,31.48
2022-11-20T13:39:40.602Z,32.65
2022-11-20T13:41:34.229Z,33.67
2022-11-20T13:43:20.091Z,31.55
2022-11-20T13:44:56.314Z,34.20
2022-11-20T13:46:38.690Z,31.38
2022-11-20T13:48:23.401Z,30.67
2022-11-20T13:49:59.618Z,29.55
2022-11-20T13:51:41.963Z,30.20
2022-11-20T13:53:29.494Z,30.35
2022-11-20T13:55:13.392Z,31.13
2022-11-20T13:57:01.047Z,30.45
2022-11-20T13:58:46.731Z,27.55
2022-11-20T14:00:21.286Z,23.80
2022-11-20T14:01:55.282Z,23.40
2022-11-20T14:03:58.913Z,23.50
2022-11-20T14:05:25.479Z,23.88
2022-11-20T14:06:59.085Z,23.55
2022-11-20T14:08:38.732Z,21.02
2022-11-20T14:10:27.019Z,17.83
2022-11-20T14:12:06.177Z,16.95
2022-11-20T14:13:38.901Z,15.95
2022-11-20T14:15:26.583Z,17.95
2022-11-20T14:17:08.506Z,18.20
2022-11-20T14:18:41.231Z,19.48
2022-11-20T14:20:19.667Z,22.25
2022-11-20T14:21:56.445Z,26.17
2022-11-20T14:23:31.203Z,27.30
2022-11-20T14:25:07.857Z,29.13
2022-11-20T14:26:44.062Z,31.13
2022-11-20T14:28:27.080Z,33.33
2022-11-20T14:30:03.452Z,35.15
2022-11-20T14:31:36.259Z,35.28
2022-11-20T14:33:09.050Z,40.47
2022-11-20T14:34:44.835Z,39.15
2022-11-20T14:36:21.598Z,38.40
2022-11-20T14:37:54.810Z,31.35
2022-11-20T14:39:32.313Z,31.20
2022-11-20T14:41:09.281Z,33.92
2022-11-20T14:42:46.033Z,30.13
2022-11-20T14:44:22.541Z,28.35
2022-11-20T14:46:00.159Z,31.05
2022-11-20T14:47:34.101Z,31.92
2022-11-20T14:49:07.768Z,33.70
2022-11-20T14:50:41.074Z,41.95
2022-11-20T14:52:16.655Z,39.90
2022-11-20T14:53:49.372Z,38.42
2022-11-20T14:55:33.062Z,35.28
2022-11-20T14:57:06.292Z,28.55
2022-11-20T14:58:39.104Z,22.23
2022-11-20T15:00:23.226Z,22.92
2022-11-20T15:01:58.657Z,23.85
2022-11-20T15:03:35.906Z,22.98
2022-11-20T15:05:09.049Z,20.02
2022-11-20T15:06:52.249Z,18.30
2022-11-20T15:08:24.963Z,36.17
2022-11-20T15:10:06.640Z,20.58
2022-11-20T15:11:39.359Z,23.23
2022-11-20T15:13:15.284Z,34.20
2022-11-20T15:14:48.064Z,37.25
2022-11-20T15:16:24.507Z,38.28
2022-11-20T15:17:57.712Z,26.65
2022-11-20T15:19:30.892Z,48.65
2022-11-20T15:21:05.957Z,38.63
2022-11-20T15:22:38.711Z,36.70
2022-11-20T15:24:11.896Z,38.72
2022-11-20T15:25:44.866Z,53.90
2022-11-20T15:27:17.710Z,45.92
2022-11-20T15:28:51.908Z,43.20
2022-11-20T15:30:25.052Z,40.53
2022-11-20T15:31:59.127Z,40.15
2022-11-20T15:33:32.354Z,23.90
2022-11-20T15:35:05.502Z,17.23
2022-11-20T15:36:38.236Z,15.88
2022-11-20T15:38:11.132Z,20.15
2022-11-20T15:39:43.847Z,23.48
2022-11-20T15:41:16.608Z,23.88
2022-11-20T15:43:05.755Z,22.38
2022-11-20T15:44:41.008Z,16.40
2022-11-20T15:46:16.413Z,13.35
2022-11-20T15:47:49.540Z,12.63
2022-11-20T15:49:23.710Z,11.40
2022-11-20T15:50:59.773Z,11.60
2022-11-20T15:52:40.353Z,11.77
2022-11-20T15:54:16.664Z,8.90
2022-11-20T15:55:49.396Z,7.43
2022-11-20T15:57:22.123Z,11.52
2022-11-20T15:58:54.962Z,7.03
2022-11-20T16:00:27.698Z,6.38
2022-11-20T16:02:00.459Z,7.57
2022-11-20T16:03:34.568Z,7.15
2022-11-20T16:05:13.345Z,8.02
2022-11-20T16:06:46.076Z,4.75
2022-11-20T16:08:18.808Z,5.43
2022-11-20T16:09:51.522Z,7.72
2022-11-20T16:11:24.271Z,6.72
2022-11-20T16:13:14.676Z,8.07
2022-11-20T16:15:08.227Z,6.22
2022-11-20T16:16:45.102Z,4.05
2022-11-20T16:18:20.939Z,6.18
2022-11-20T16:19:54.974Z,7.88
2022-11-20T16:21:31.948Z,6.80
2022-11-20T16:23:05.006Z,4.97
2022-11-20T16:24:37.751Z,4.18
2022-11-20T16:26:15.014Z,3.55
2022-11-20T16:27:47.708Z,5.13
2022-11-20T16:29:20.577Z,6.30
2022-11-20T16:30:53.322Z,3.35
2022-11-20T16:32:26.073Z,5.18
2022-11-20T16:34:01.231Z,3.80
2022-11-20T16:35:35.286Z,2.90
2022-11-20T16:37:09.045Z,5.15
2022-11-20T16:38:43.404Z,4.07
2022-11-20T16:40:16.555Z,6.60
2022-11-20T16:41:49.284Z,5.20
2022-11-20T16:43:22.038Z,5.20
2022-11-20T16:44:54.757Z,5.70
2022-11-20T16:46:28.834Z,6.05
2022-11-20T16:48:01.553Z,3.92
2022-11-20T16:49:34.282Z,4.03
2022-11-20T16:51:10.883Z,3.40
2022-11-20T16:52:43.619Z,3.10
2022-11-20T16:54:20.582Z,4.85
2022-11-20T16:55:54.043Z,4.75
2022-11-20T16:57:29.424Z,3.10
2022-11-20T16:59:03.440Z,5.03
2022-11-20T17:00:37.793Z,4.78
2022-11-20T17:02:10.727Z,3.55
2022-11-20T17:03:45.087Z,4.90
2022-11-20T17:05:17.906Z,5.25
2022-11-20T17:06:52.067Z,2.97
2022-11-20T17:08:24.816Z,7.47
2022-11-20T17:09:58.027Z,5.85
2022-11-20T17:11:30.733Z,2.83
2022-11-20T17:13:03.682Z,4.40
2022-11-20T17:14:36.995Z,4.03
2022-11-20T17:16:11.806Z,4.35
2022-11-20T17:17:44.818Z,4.38
2022-11-20T17:19:17.658Z,7.25
2022-11-20T17:20:53.303Z,2.88
2022-11-20T17:22:27.717Z,5.07
2022-11-20T17:24:03.178Z,6.90
2022-11-20T17:25:35.894Z,4.28
2022-11-20T17:27:08.652Z,5.07
2022-11-20T17:28:41.887Z,5.97
2022-11-20T17:30:14.871Z,6.15
2022-11-20T17:31:48.539Z,2.58
2022-11-20T17:33:21.258Z,4.05
2022-11-20T17:34:53.999Z,6.97
2022-11-20T17:36:27.403Z,4.20
2022-11-20T17:38:01.455Z,4.40
2022-11-20T17:39:34.167Z,4.90
2022-11-20T17:41:08.695Z,4.13
2022-11-20T17:42:41.425Z,5.35
2022-11-20T17:44:14.398Z,7.43
2022-11-20T17:45:47.208Z,4.97
2022-11-20T17:47:19.952Z,3.80
2022-11-20T17:48:53.349Z,3.42
2022-11-20T17:50:26.144Z,4.10
2022-11-20T17:51:58.871Z,5.35
2022-11-20T17:53:37.218Z,4.00
2022-11-20T17:55:10.549Z,2.90
2022-11-20T17:57:00.675Z,4.30
2022-11-20T17:58:32.431Z,4.57
2022-11-20T18:00:05.907Z,5.60
2022-11-20T18:01:39.348Z,7.32
2022-11-20T18:03:12.137Z,3.72
2022-11-20T18:04:44.882Z,3.67
2022-11-20T18:06:19.611Z,4.30
2022-11-20T18:07:54.485Z,4.10
2022-11-20T18:09:28.806Z,5.85
2022-11-20T18:11:01.525Z,3.15
2022-11-20T18:12:34.431Z,2.30
2022-11-20T18:14:28.890Z,2.58
2022-11-20T18:16:07.870Z,2.65
2022-11-20T18:17:40.594Z,3.22
2022-11-20T18:19:15.799Z,3.97
2022-11-20T18:20:54.384Z,5.07
2022-11-20T18:22:27.129Z,4.28
2022-11-20T18:24:00.057Z,3.35
2022-11-20T18:25:34.132Z,5.55
2022-11-20T18:27:08.175Z,3.92
2022-11-20T18:28:40.894Z,1.70
2022-11-20T18:30:15.116Z,2.47
2022-11-20T18:31:46.885Z,4.38
2022-11-20T18:33:22.132Z,2.63
2022-11-20T18:34:58.249Z,4.07
2022-11-20T18:36:32.505Z,2.05
2022-11-20T18:38:05.252Z,4.43
2022-11-20T18:39:37.979Z,2.38
2022-11-20T18:41:33.468Z,2.30
2022-11-20T18:43:24.223Z,2.83
2022-11-20T18:44:56.239Z,1.42
2022-11-20T18:46:28.992Z,3.90
2022-11-20T18:48:01.743Z,2.20
2022-11-20T18:49:34.515Z,2.70
2022-11-20T18:51:07.795Z,4.25
2022-11-20T18:52:44.231Z,2.97
2022-11-20T18:54:17.011Z,4.10
2022-11-20T18:55:49.724Z,1.65
2022-11-20T18:57:25.673Z,2.33
2022-11-20T18:59:01.504Z,1.80
2022-11-20T19:00:34.486Z,2.00
2022-11-20T19:02:07.765Z,2.58
2022-11-20T19:03:40.499Z,2.10
2022-11-20T19:05:15.400Z,1.70
2022-11-20T19:06:49.357Z,2.80
2022-11-20T19:08:22.067Z,2.53
2022-11-20T19:09:57.454Z,2.63
2022-11-20T19:11:32.652Z,3.63
2022-11-20T19:13:07.082Z,2.20
2022-11-20T19:14:40.025Z,2.22
2022-11-20T19:16:16.298Z,3.15
2022-11-20T19:17:49.134Z,3.20
2022-11-20T19:19:22.409Z,2.30
2022-11-20T19:20:55.268Z,2.50
2022-11-20T19:22:28.009Z,2.60
2022-11-20T19:24:02.258Z,2.22
2022-11-20T19:25:38.124Z,2.00
2022-11-20T19:27:11.153Z,4.40
2022-11-20T19:28:45.688Z,5.97
2022-11-20T19:30:18.439Z,4.18
2022-11-20T19:31:51.813Z,5.28
2022-11-20T19:33:24.552Z,1.70
2022-11-20T19:34:57.315Z,1.50
2022-11-20T19:36:31.994Z,1.48
2022-11-20T19:38:05.767Z,1.80
2022-11-20T19:39:38.547Z,1.75
2022-11-20T19:41:11.763Z,1.95
2022-11-20T19:42:44.511Z,1.75
2022-11-20T19:44:19.311Z,1.95
2022-11-20T19:45:52.060Z,2.20
2022-11-20T19:47:45.999Z,3.03
2022-11-20T19:49:17.856Z,2.42
2022-11-20T19:50:51.042Z,3.50
2022-11-20T19:52:23.760Z,2.70
2022-11-20T19:53:57.103Z,3.90
2022-11-20T19:55:29.915Z,2.72
2022-11-20T19:57:02.667Z,2.38
2022-11-20T19:58:36.066Z,1.60
2022-11-20T20:00:12.203Z,2.50
2022-11-20T20:01:45.321Z,2.63
2022-11-20T20:03:18.695Z,2.17
2022-11-20T20:04:51.436Z,2.50
2022-11-20T20:06:26.101Z,3.00
2022-11-20T20:07:58.865Z,1.95
2022-11-20T20:09:31.631Z,1.80
2022-11-20T20:11:11.928Z,3.88
2022-11-20T20:12:44.747Z,4.30
2022-11-20T20:14:18.244Z,2.85
2022-11-20T20:15:52.615Z,1.88
2022-11-20T20:17:25.351Z,1.83
2022-11-20T20:18:59.191Z,1.88
2022-11-20T20:20:31.907Z,3.08
2022-11-20T20:22:04.651Z,2.00
2022-11-20T20:23:37.755Z,1.80
2022-11-20T20:25:10.794Z,2.35
2022-11-20T20:26:43.563Z,1.80
2022-11-20T20:28:16.728Z,1.80
2022-11-20T20:29:49.443Z,1.63
2022-11-20T20:31:24.859Z,2.22
2022-11-20T20:32:57.604Z,1.90
2022-11-20T20:34:31.967Z,15.27
2022-11-20T20:36:05.096Z,24.13
2022-11-20T20:37:37.842Z,40.22
2022-11-20T20:39:11.719Z,6.78
2022-11-20T20:40:48.810Z,4.78
2022-11-20T20:42:21.532Z,4.78